sensor_id;sensor_type;location;lat;lon;timestamp;P1;durP1;ratioP1;P2;durP2;ratioP2
5795;SDS011;2924;51.458;7.046;2023-08-17T00:00:10;13.97;;;8.40;;
5795;SDS011;2924;51.458;7.046;2023-08-17T00:02:39;9.33;;;7.80;;
5795;SDS011;2924;51.458;7.046;2023-08-17T00:05:05;14.27;;;8.23;;
5795;SDS011;2924;51.458;7.046;2023-08-17T00:07:32;11.97;;;8.47;;
5795;SDS011;2924;51.458;7.046;2023-08-17T00:09:58;11.13;;;8.80;;
5795;SDS011;2924;51.458;7.046;2023-08-17T00:12:23;11.23;;;9.50;;
5795;SDS011;2924;51.458;7.046;2023-08-17T00:14:50;19.90;;;9.10;;
5795;SDS011;2924;51.458;7.046;2023-08-17T00:17:16;14.33;;;9.60;;
5795;SDS011;2924;51.458;7.046;2023-08-17T00:19:41;12.13;;;9.33;;
5795;SDS011;2924;51.458;7.046;2023-08-17T00:22:07;11.17;;;8.67;;
5795;SDS011;2924;51.458;7.046;2023-08-17T00:24:33;14.33;;;10.00;;
5795;SDS011;2924;51.458;7.046;2023-08-17T00:26:58;11.13;;;8.97;;
5795;SDS011;2924;51.458;7.046;2023-08-17T00:29:24;13.47;;;9.20;;
5795;SDS011;2924;51.458;7.046;2023-08-17T00:31:49;13.20;;;9.40;;
5795;SDS011;2924;51.458;7.046;2023-08-17T00:34:16;13.20;;;8.30;;
5795;SDS011;2924;51.458;7.046;2023-08-17T00:36:41;13.10;;;10.70;;
5795;SDS011;2924;51.458;7.046;2023-08-17T00:39:07;17.70;;;9.00;;
5795;SDS011;2924;51.458;7.046;2023-08-17T00:41:32;11.87;;;9.20;;
5795;SDS011;2924;51.458;7.046;2023-08-17T00:43:59;10.50;;;9.50;;
5795;SDS011;2924;51.458;7.046;2023-08-17T00:46:25;13.47;;;10.13;;
5795;SDS011;2924;51.458;7.046;2023-08-17T00:48:52;12.57;;;10.33;;
5795;SDS011;2924;51.458;7.046;2023-08-17T00:51:19;11.97;;;9.77;;
5795;SDS011;2924;51.458;7.046;2023-08-17T00:53:48;14.03;;;10.80;;
5795;SDS011;2924;51.458;7.046;2023-08-17T00:56:15;12.43;;;10.73;;
5795;SDS011;2924;51.458;7.046;2023-08-17T00:58:41;11.70;;;9.60;;
5795;SDS011;2924;51.458;7.046;2023-08-17T01:01:08;12.77;;;10.23;;
5795;SDS011;2924;51.458;7.046;2023-08-17T01:03:33;14.07;;;11.00;;
5795;SDS011;2924;51.458;7.046;2023-08-17T01:05:59;14.73;;;10.90;;
5795;SDS011;2924;51.458;7.046;2023-08-17T01:08:27;18.20;;;10.97;;
5795;SDS011;2924;51.458;7.046;2023-08-17T01:11:08;17.13;;;12.80;;
5795;SDS011;2924;51.458;7.046;2023-08-17T01:16:38;19.73;;;12.93;;
5795;SDS011;2924;51.458;7.046;2023-08-17T01:19:10;14.53;;;11.67;;
5795;SDS011;2924;51.458;7.046;2023-08-17T01:21:41;16.23;;;13.00;;
5795;SDS011;2924;51.458;7.046;2023-08-17T01:24:08;18.67;;;13.97;;
5795;SDS011;2924;51.458;7.046;2023-08-17T01:26:36;22.00;;;13.50;;
5795;SDS011;2924;51.458;7.046;2023-08-17T01:29:01;16.17;;;14.33;;
5795;SDS011;2924;51.458;7.046;2023-08-17T01:31:31;25.90;;;14.73;;
5795;SDS011;2924;51.458;7.046;2023-08-17T01:34:05;24.90;;;14.13;;
5795;SDS011;2924;51.458;7.046;2023-08-17T01:36:39;22.03;;;12.80;;
5795;SDS011;2924;51.458;7.046;2023-08-17T01:39:10;21.67;;;13.13;;
5795;SDS011;2924;51.458;7.046;2023-08-17T01:41:36;14.90;;;12.03;;
5795;SDS011;2924;51.458;7.046;2023-08-17T01:44:03;20.23;;;12.67;;
5795;SDS011;2924;51.458;7.046;2023-08-17T01:46:31;21.80;;;11.40;;
5795;SDS011;2924;51.458;7.046;2023-08-17T01:48:58;18.30;;;11.83;;
5795;SDS011;2924;51.458;7.046;2023-08-17T01:51:23;20.70;;;12.17;;
5795;SDS011;2924;51.458;7.046;2023-08-17T01:53:50;23.70;;;12.70;;
5795;SDS011;2924;51.458;7.046;2023-08-17T01:56:16;16.47;;;11.57;;
5795;SDS011;2924;51.458;7.046;2023-08-17T01:58:42;19.33;;;12.20;;
5795;SDS011;2924;51.458;7.046;2023-08-17T02:01:08;17.03;;;11.70;;
5795;SDS011;2924;51.458;7.046;2023-08-17T02:03:34;29.50;;;11.97;;
5795;SDS011;2924;51.458;7.046;2023-08-17T02:06:00;23.30;;;12.07;;
5795;SDS011;2924;51.458;7.046;2023-08-17T02:08:25;19.67;;;12.17;;
5795;SDS011;2924;51.458;7.046;2023-08-17T02:10:51;14.23;;;11.80;;
5795;SDS011;2924;51.458;7.046;2023-08-17T02:13:17;19.30;;;12.30;;
5795;SDS011;2924;51.458;7.046;2023-08-17T02:15:44;16.50;;;12.10;;
5795;SDS011;2924;51.458;7.046;2023-08-17T02:18:11;20.40;;;11.53;;
5795;SDS011;2924;51.458;7.046;2023-08-17T02:20:36;17.27;;;11.10;;
5795;SDS011;2924;51.458;7.046;2023-08-17T02:23:02;20.23;;;11.70;;
5795;SDS011;2924;51.458;7.046;2023-08-17T02:25:28;14.13;;;11.10;;
5795;SDS011;2924;51.458;7.046;2023-08-17T02:28:00;20.93;;;12.27;;
5795;SDS011;2924;51.458;7.046;2023-08-17T02:30:26;17.73;;;12.07;;
5795;SDS011;2924;51.458;7.046;2023-08-17T02:32:52;13.87;;;11.67;;
5795;SDS011;2924;51.458;7.046;2023-08-17T02:35:18;26.47;;;13.67;;
5795;SDS011;2924;51.458;7.046;2023-08-17T02:37:43;23.70;;;11.90;;
5795;SDS011;2924;51.458;7.046;2023-08-17T02:40:09;24.13;;;12.70;;
5795;SDS011;2924;51.458;7.046;2023-08-17T02:42:35;18.83;;;11.30;;
5795;SDS011;2924;51.458;7.046;2023-08-17T02:45:00;18.53;;;11.87;;
5795;SDS011;2924;51.458;7.046;2023-08-17T02:47:26;20.33;;;12.53;;
5795;SDS011;2924;51.458;7.046;2023-08-17T02:49:51;18.80;;;11.20;;
5795;SDS011;2924;51.458;7.046;2023-08-17T02:52:17;22.33;;;13.30;;
5795;SDS011;2924;51.458;7.046;2023-08-17T02:54:43;18.83;;;13.73;;
5795;SDS011;2924;51.458;7.046;2023-08-17T02:57:08;16.30;;;12.57;;
5795;SDS011;2924;51.458;7.046;2023-08-17T02:59:34;21.63;;;13.57;;
5795;SDS011;2924;51.458;7.046;2023-08-17T03:02:00;25.10;;;13.60;;
5795;SDS011;2924;51.458;7.046;2023-08-17T03:04:26;15.87;;;11.63;;
5795;SDS011;2924;51.458;7.046;2023-08-17T03:06:51;19.80;;;14.10;;
5795;SDS011;2924;51.458;7.046;2023-08-17T03:09:17;20.17;;;13.53;;
5795;SDS011;2924;51.458;7.046;2023-08-17T03:11:42;21.93;;;13.97;;
5795;SDS011;2924;51.458;7.046;2023-08-17T03:14:08;15.20;;;11.00;;
5795;SDS011;2924;51.458;7.046;2023-08-17T03:16:33;15.53;;;12.23;;
5795;SDS011;2924;51.458;7.046;2023-08-17T03:18:59;20.80;;;11.13;;
5795;SDS011;2924;51.458;7.046;2023-08-17T03:21:24;15.03;;;10.20;;
5795;SDS011;2924;51.458;7.046;2023-08-17T03:23:50;19.03;;;11.80;;
5795;SDS011;2924;51.458;7.046;2023-08-17T03:26:16;20.23;;;11.00;;
5795;SDS011;2924;51.458;7.046;2023-08-17T03:28:41;28.67;;;11.07;;
5795;SDS011;2924;51.458;7.046;2023-08-17T03:31:07;21.90;;;11.40;;
5795;SDS011;2924;51.458;7.046;2023-08-17T03:33:35;26.97;;;12.20;;
5795;SDS011;2924;51.458;7.046;2023-08-17T03:36:02;20.57;;;12.60;;
5795;SDS011;2924;51.458;7.046;2023-08-17T03:38:28;20.50;;;12.10;;
5795;SDS011;2924;51.458;7.046;2023-08-17T03:40:53;17.90;;;12.43;;
5795;SDS011;2924;51.458;7.046;2023-08-17T03:43:19;17.30;;;11.40;;
5795;SDS011;2924;51.458;7.046;2023-08-17T03:45:44;17.30;;;11.60;;
5795;SDS011;2924;51.458;7.046;2023-08-17T03:48:10;17.70;;;11.90;;
5795;SDS011;2924;51.458;7.046;2023-08-17T03:50:36;24.17;;;12.63;;
5795;SDS011;2924;51.458;7.046;2023-08-17T03:53:02;20.47;;;11.20;;
5795;SDS011;2924;51.458;7.046;2023-08-17T03:55:28;20.10;;;11.87;;
5795;SDS011;2924;51.458;7.046;2023-08-17T03:57:53;17.20;;;11.00;;
5795;SDS011;2924;51.458;7.046;2023-08-17T04:00:19;23.80;;;12.70;;
5795;SDS011;2924;51.458;7.046;2023-08-17T04:02:44;17.90;;;12.30;;
5795;SDS011;2924;51.458;7.046;2023-08-17T04:05:10;17.83;;;12.53;;
5795;SDS011;2924;51.458;7.046;2023-08-17T04:07:36;21.00;;;12.67;;
5795;SDS011;2924;51.458;7.046;2023-08-17T04:10:02;17.93;;;11.47;;
5795;SDS011;2924;51.458;7.046;2023-08-17T04:12:30;28.20;;;13.30;;
5795;SDS011;2924;51.458;7.046;2023-08-17T04:14:55;30.73;;;13.43;;
5795;SDS011;2924;51.458;7.046;2023-08-17T04:17:21;21.40;;;12.87;;
5795;SDS011;2924;51.458;7.046;2023-08-17T04:19:46;16.63;;;11.10;;
5795;SDS011;2924;51.458;7.046;2023-08-17T04:22:12;32.70;;;13.77;;
5795;SDS011;2924;51.458;7.046;2023-08-17T04:24:38;20.57;;;12.80;;
5795;SDS011;2924;51.458;7.046;2023-08-17T04:27:04;22.77;;;13.73;;
5795;SDS011;2924;51.458;7.046;2023-08-17T04:29:30;22.67;;;13.93;;
5795;SDS011;2924;51.458;7.046;2023-08-17T04:31:56;25.73;;;13.27;;
5795;SDS011;2924;51.458;7.046;2023-08-17T04:34:22;16.57;;;13.27;;
5795;SDS011;2924;51.458;7.046;2023-08-17T04:36:48;22.80;;;13.10;;
5795;SDS011;2924;51.458;7.046;2023-08-17T04:39:14;15.73;;;12.47;;
5795;SDS011;2924;51.458;7.046;2023-08-17T04:41:39;25.30;;;13.37;;
5795;SDS011;2924;51.458;7.046;2023-08-17T04:44:05;35.53;;;14.50;;
5795;SDS011;2924;51.458;7.046;2023-08-17T04:46:30;31.30;;;14.30;;
5795;SDS011;2924;51.458;7.046;2023-08-17T04:48:56;20.17;;;14.77;;
5795;SDS011;2924;51.458;7.046;2023-08-17T04:51:21;29.30;;;14.80;;
5795;SDS011;2924;51.458;7.046;2023-08-17T04:53:47;25.03;;;14.33;;
5795;SDS011;2924;51.458;7.046;2023-08-17T04:56:12;20.60;;;14.00;;
5795;SDS011;2924;51.458;7.046;2023-08-17T04:58:38;24.93;;;14.63;;
5795;SDS011;2924;51.458;7.046;2023-08-17T05:01:03;26.77;;;15.50;;
5795;SDS011;2924;51.458;7.046;2023-08-17T05:03:29;23.50;;;15.50;;
5795;SDS011;2924;51.458;7.046;2023-08-17T05:05:56;22.57;;;15.00;;
5795;SDS011;2924;51.458;7.046;2023-08-17T05:08:21;25.13;;;16.27;;
5795;SDS011;2924;51.458;7.046;2023-08-17T05:10:47;33.30;;;15.97;;
5795;SDS011;2924;51.458;7.046;2023-08-17T05:13:13;17.00;;;14.53;;
5795;SDS011;2924;51.458;7.046;2023-08-17T05:15:39;29.73;;;17.27;;
5795;SDS011;2924;51.458;7.046;2023-08-17T05:18:04;29.33;;;15.67;;
5795;SDS011;2924;51.458;7.046;2023-08-17T05:20:30;36.80;;;16.13;;
5795;SDS011;2924;51.458;7.046;2023-08-17T05:22:56;29.47;;;15.33;;
5795;SDS011;2924;51.458;7.046;2023-08-17T05:25:22;24.60;;;15.73;;
5795;SDS011;2924;51.458;7.046;2023-08-17T05:27:47;26.00;;;16.20;;
5795;SDS011;2924;51.458;7.046;2023-08-17T05:30:14;25.10;;;16.93;;
5795;SDS011;2924;51.458;7.046;2023-08-17T05:32:40;27.53;;;16.60;;
5795;SDS011;2924;51.458;7.046;2023-08-17T05:35:05;30.07;;;15.77;;
5795;SDS011;2924;51.458;7.046;2023-08-17T05:37:31;30.57;;;16.40;;
5795;SDS011;2924;51.458;7.046;2023-08-17T05:39:57;26.03;;;14.47;;
5795;SDS011;2924;51.458;7.046;2023-08-17T05:42:22;16.43;;;13.37;;
5795;SDS011;2924;51.458;7.046;2023-08-17T05:44:48;22.33;;;12.80;;
5795;SDS011;2924;51.458;7.046;2023-08-17T05:47:13;20.63;;;12.10;;
5795;SDS011;2924;51.458;7.046;2023-08-17T05:49:42;19.57;;;11.50;;
5795;SDS011;2924;51.458;7.046;2023-08-17T05:52:08;22.60;;;12.73;;
5795;SDS011;2924;51.458;7.046;2023-08-17T05:54:33;16.03;;;11.20;;
5795;SDS011;2924;51.458;7.046;2023-08-17T05:56:59;18.03;;;11.80;;
5795;SDS011;2924;51.458;7.046;2023-08-17T05:59:24;13.47;;;11.07;;
5795;SDS011;2924;51.458;7.046;2023-08-17T06:01:50;18.50;;;10.77;;
5795;SDS011;2924;51.458;7.046;2023-08-17T06:04:16;15.20;;;10.43;;
5795;SDS011;2924;51.458;7.046;2023-08-17T06:06:41;19.97;;;11.27;;
5795;SDS011;2924;51.458;7.046;2023-08-17T06:09:07;26.43;;;11.40;;
5795;SDS011;2924;51.458;7.046;2023-08-17T06:11:33;22.47;;;12.93;;
5795;SDS011;2924;51.458;7.046;2023-08-17T06:13:59;25.73;;;11.70;;
5795;SDS011;2924;51.458;7.046;2023-08-17T06:16:24;19.60;;;13.27;;
5795;SDS011;2924;51.458;7.046;2023-08-17T06:18:50;24.57;;;13.90;;
5795;SDS011;2924;51.458;7.046;2023-08-17T06:21:16;23.33;;;14.03;;
5795;SDS011;2924;51.458;7.046;2023-08-17T06:23:41;23.83;;;14.93;;
5795;SDS011;2924;51.458;7.046;2023-08-17T06:26:07;24.23;;;13.43;;
5795;SDS011;2924;51.458;7.046;2023-08-17T06:28:33;25.70;;;14.53;;
5795;SDS011;2924;51.458;7.046;2023-08-17T06:30:58;37.00;;;17.20;;
5795;SDS011;2924;51.458;7.046;2023-08-17T06:33:24;20.47;;;15.43;;
5795;SDS011;2924;51.458;7.046;2023-08-17T06:35:50;34.73;;;17.43;;
5795;SDS011;2924;51.458;7.046;2023-08-17T06:38:16;29.60;;;17.77;;
5795;SDS011;2924;51.458;7.046;2023-08-17T06:40:42;31.43;;;16.30;;
5795;SDS011;2924;51.458;7.046;2023-08-17T06:43:08;24.80;;;16.17;;
5795;SDS011;2924;51.458;7.046;2023-08-17T06:45:34;35.67;;;15.60;;
5795;SDS011;2924;51.458;7.046;2023-08-17T06:47:59;23.33;;;15.63;;
5795;SDS011;2924;51.458;7.046;2023-08-17T06:50:25;34.93;;;17.27;;
5795;SDS011;2924;51.458;7.046;2023-08-17T06:52:51;29.00;;;17.37;;
5795;SDS011;2924;51.458;7.046;2023-08-17T06:55:17;25.07;;;16.43;;
5795;SDS011;2924;51.458;7.046;2023-08-17T06:57:43;27.83;;;17.20;;
5795;SDS011;2924;51.458;7.046;2023-08-17T07:00:09;33.07;;;17.20;;
5795;SDS011;2924;51.458;7.046;2023-08-17T07:02:36;39.63;;;17.70;;
5795;SDS011;2924;51.458;7.046;2023-08-17T07:05:01;25.00;;;15.90;;
5795;SDS011;2924;51.458;7.046;2023-08-17T07:07:28;23.73;;;15.90;;
5795;SDS011;2924;51.458;7.046;2023-08-17T07:09:56;31.33;;;16.80;;
5795;SDS011;2924;51.458;7.046;2023-08-17T07:12:22;27.37;;;14.90;;
5795;SDS011;2924;51.458;7.046;2023-08-17T07:14:49;30.53;;;14.80;;
5795;SDS011;2924;51.458;7.046;2023-08-17T07:17:14;33.23;;;16.27;;
5795;SDS011;2924;51.458;7.046;2023-08-17T07:19:40;25.33;;;15.10;;
5795;SDS011;2924;51.458;7.046;2023-08-17T07:22:06;28.57;;;15.80;;
5795;SDS011;2924;51.458;7.046;2023-08-17T07:24:31;26.40;;;14.70;;
5795;SDS011;2924;51.458;7.046;2023-08-17T07:26:57;27.60;;;16.43;;
5795;SDS011;2924;51.458;7.046;2023-08-17T07:29:23;25.60;;;15.27;;
5795;SDS011;2924;51.458;7.046;2023-08-17T07:31:48;27.77;;;14.97;;
5795;SDS011;2924;51.458;7.046;2023-08-17T07:34:14;31.57;;;13.80;;
5795;SDS011;2924;51.458;7.046;2023-08-17T07:36:39;18.10;;;14.47;;
5795;SDS011;2924;51.458;7.046;2023-08-17T07:39:05;25.90;;;13.63;;
5795;SDS011;2924;51.458;7.046;2023-08-17T07:41:31;21.17;;;13.63;;
5795;SDS011;2924;51.458;7.046;2023-08-17T07:43:56;25.23;;;13.43;;
5795;SDS011;2924;51.458;7.046;2023-08-17T07:46:22;26.40;;;14.53;;
5795;SDS011;2924;51.458;7.046;2023-08-17T07:48:47;39.20;;;15.47;;
5795;SDS011;2924;51.458;7.046;2023-08-17T07:51:13;21.87;;;14.03;;
5795;SDS011;2924;51.458;7.046;2023-08-17T07:53:39;23.57;;;13.93;;
5795;SDS011;2924;51.458;7.046;2023-08-17T07:56:05;20.50;;;12.90;;
5795;SDS011;2924;51.458;7.046;2023-08-17T07:58:30;21.97;;;13.13;;
5795;SDS011;2924;51.458;7.046;2023-08-17T08:00:56;18.47;;;13.60;;
5795;SDS011;2924;51.458;7.046;2023-08-17T08:03:21;19.37;;;12.10;;
5795;SDS011;2924;51.458;7.046;2023-08-17T08:05:47;20.10;;;13.13;;
5795;SDS011;2924;51.458;7.046;2023-08-17T08:08:13;16.87;;;12.67;;
5795;SDS011;2924;51.458;7.046;2023-08-17T08:10:39;37.60;;;12.00;;
5795;SDS011;2924;51.458;7.046;2023-08-17T08:13:05;22.73;;;14.27;;
5795;SDS011;2924;51.458;7.046;2023-08-17T08:15:31;22.23;;;12.57;;
5795;SDS011;2924;51.458;7.046;2023-08-17T08:17:58;21.73;;;13.57;;
5795;SDS011;2924;51.458;7.046;2023-08-17T08:20:23;20.33;;;12.90;;
5795;SDS011;2924;51.458;7.046;2023-08-17T08:22:49;29.87;;;14.77;;
5795;SDS011;2924;51.458;7.046;2023-08-17T08:25:15;28.10;;;15.00;;
5795;SDS011;2924;51.458;7.046;2023-08-17T08:27:40;20.47;;;14.77;;
5795;SDS011;2924;51.458;7.046;2023-08-17T08:30:06;21.13;;;14.00;;
5795;SDS011;2924;51.458;7.046;2023-08-17T08:32:32;24.33;;;14.83;;
5795;SDS011;2924;51.458;7.046;2023-08-17T08:34:58;25.50;;;14.30;;
5795;SDS011;2924;51.458;7.046;2023-08-17T08:37:24;23.07;;;13.53;;
5795;SDS011;2924;51.458;7.046;2023-08-17T08:39:50;33.20;;;14.20;;
5795;SDS011;2924;51.458;7.046;2023-08-17T08:42:20;19.90;;;13.60;;
5795;SDS011;2924;51.458;7.046;2023-08-17T08:44:47;24.20;;;14.73;;
5795;SDS011;2924;51.458;7.046;2023-08-17T08:47:14;20.33;;;13.33;;
5795;SDS011;2924;51.458;7.046;2023-08-17T08:49:42;22.03;;;12.50;;
5795;SDS011;2924;51.458;7.046;2023-08-17T08:52:35;14.83;;;12.43;;
5795;SDS011;2924;51.458;7.046;2023-08-17T08:55:12;25.30;;;12.43;;
5795;SDS011;2924;51.458;7.046;2023-08-17T08:57:42;19.30;;;12.30;;
5795;SDS011;2924;51.458;7.046;2023-08-17T09:00:09;17.73;;;13.33;;
5795;SDS011;2924;51.458;7.046;2023-08-17T09:02:36;24.33;;;13.47;;
5795;SDS011;2924;51.458;7.046;2023-08-17T09:05:04;22.03;;;14.43;;
5795;SDS011;2924;51.458;7.046;2023-08-17T09:07:31;19.13;;;13.00;;
5795;SDS011;2924;51.458;7.046;2023-08-17T09:09:58;18.13;;;12.00;;
5795;SDS011;2924;51.458;7.046;2023-08-17T09:12:24;23.90;;;12.73;;
5795;SDS011;2924;51.458;7.046;2023-08-17T09:14:50;18.23;;;11.30;;
5795;SDS011;2924;51.458;7.046;2023-08-17T09:17:25;19.73;;;10.43;;
5795;SDS011;2924;51.458;7.046;2023-08-17T09:19:51;17.47;;;11.33;;
5795;SDS011;2924;51.458;7.046;2023-08-17T09:22:23;18.57;;;12.43;;
5795;SDS011;2924;51.458;7.046;2023-08-17T09:24:49;23.00;;;13.67;;
5795;SDS011;2924;51.458;7.046;2023-08-17T09:27:15;20.27;;;13.43;;
5795;SDS011;2924;51.458;7.046;2023-08-17T09:29:42;28.67;;;14.77;;
5795;SDS011;2924;51.458;7.046;2023-08-17T09:32:10;23.37;;;15.57;;
5795;SDS011;2924;51.458;7.046;2023-08-17T09:34:36;19.87;;;14.03;;
5795;SDS011;2924;51.458;7.046;2023-08-17T09:37:02;21.97;;;12.63;;
5795;SDS011;2924;51.458;7.046;2023-08-17T09:39:29;19.53;;;11.90;;
5795;SDS011;2924;51.458;7.046;2023-08-17T09:41:55;20.90;;;12.50;;
5795;SDS011;2924;51.458;7.046;2023-08-17T09:44:21;26.17;;;14.90;;
5795;SDS011;2924;51.458;7.046;2023-08-17T09:54:27;19.83;;;11.63;;
5795;SDS011;2924;51.458;7.046;2023-08-17T09:59:30;25.47;;;13.30;;
5795;SDS011;2924;51.458;7.046;2023-08-17T10:01:56;20.27;;;11.60;;
5795;SDS011;2924;51.458;7.046;2023-08-17T10:04:24;20.90;;;11.10;;
5795;SDS011;2924;51.458;7.046;2023-08-17T10:07:00;14.73;;;10.63;;
5795;SDS011;2924;51.458;7.046;2023-08-17T10:09:29;20.53;;;11.97;;
5795;SDS011;2924;51.458;7.046;2023-08-17T10:12:01;12.53;;;10.40;;
5795;SDS011;2924;51.458;7.046;2023-08-17T10:14:35;18.83;;;12.90;;
5795;SDS011;2924;51.458;7.046;2023-08-17T10:17:07;20.57;;;12.73;;
5795;SDS011;2924;51.458;7.046;2023-08-17T10:19:46;16.27;;;11.27;;
5795;SDS011;2924;51.458;7.046;2023-08-17T10:22:36;16.30;;;10.67;;
5795;SDS011;2924;51.458;7.046;2023-08-17T10:25:09;14.67;;;11.00;;
5795;SDS011;2924;51.458;7.046;2023-08-17T16:12:06;14.67;;;12.03;;
5795;SDS011;2924;51.458;7.046;2023-08-17T16:14:34;16.30;;;12.50;;
5795;SDS011;2924;51.458;7.046;2023-08-17T16:16:59;14.47;;;11.20;;
5795;SDS011;2924;51.458;7.046;2023-08-17T16:19:25;17.10;;;11.17;;
5795;SDS011;2924;51.458;7.046;2023-08-17T16:21:50;19.30;;;13.07;;
5795;SDS011;2924;51.458;7.046;2023-08-17T16:24:16;19.13;;;11.97;;
5795;SDS011;2924;51.458;7.046;2023-08-17T16:26:42;16.40;;;11.30;;
5795;SDS011;2924;51.458;7.046;2023-08-17T16:29:07;15.43;;;12.10;;
5795;SDS011;2924;51.458;7.046;2023-08-17T16:31:33;16.10;;;11.17;;
5795;SDS011;2924;51.458;7.046;2023-08-17T16:34:00;12.03;;;10.00;;
5795;SDS011;2924;51.458;7.046;2023-08-17T16:36:26;13.37;;;11.10;;
5795;SDS011;2924;51.458;7.046;2023-08-17T16:38:51;18.53;;;10.53;;
5795;SDS011;2924;51.458;7.046;2023-08-17T16:41:17;14.40;;;10.83;;
5795;SDS011;2924;51.458;7.046;2023-08-17T16:43:42;11.27;;;8.97;;
5795;SDS011;2924;51.458;7.046;2023-08-17T16:46:08;12.10;;;10.10;;
5795;SDS011;2924;51.458;7.046;2023-08-17T16:48:34;11.07;;;9.90;;
5795;SDS011;2924;51.458;7.046;2023-08-17T16:51:00;13.40;;;9.60;;
5795;SDS011;2924;51.458;7.046;2023-08-17T16:53:25;10.57;;;9.50;;
5795;SDS011;2924;51.458;7.046;2023-08-17T16:55:51;14.70;;;9.70;;
5795;SDS011;2924;51.458;7.046;2023-08-17T16:58:16;11.10;;;8.40;;
5795;SDS011;2924;51.458;7.046;2023-08-17T17:00:42;9.90;;;8.10;;
5795;SDS011;2924;51.458;7.046;2023-08-17T17:03:07;12.73;;;9.30;;
5795;SDS011;2924;51.458;7.046;2023-08-17T17:05:33;12.73;;;8.43;;
5795;SDS011;2924;51.458;7.046;2023-08-17T17:07:58;10.10;;;8.50;;
5795;SDS011;2924;51.458;7.046;2023-08-17T17:10:24;9.10;;;7.97;;
5795;SDS011;2924;51.458;7.046;2023-08-17T17:12:49;10.40;;;8.57;;
5795;SDS011;2924;51.458;7.046;2023-08-17T17:15:15;10.00;;;8.67;;
5795;SDS011;2924;51.458;7.046;2023-08-17T17:17:41;10.53;;;9.17;;
5795;SDS011;2924;51.458;7.046;2023-08-17T17:20:07;12.53;;;9.50;;
5795;SDS011;2924;51.458;7.046;2023-08-17T17:22:33;8.33;;;7.53;;
5795;SDS011;2924;51.458;7.046;2023-08-17T17:24:58;10.20;;;8.50;;
5795;SDS011;2924;51.458;7.046;2023-08-17T17:27:24;15.03;;;9.00;;
5795;SDS011;2924;51.458;7.046;2023-08-17T17:29:49;10.63;;;9.63;;
5795;SDS011;2924;51.458;7.046;2023-08-17T17:32:15;10.20;;;8.23;;
5795;SDS011;2924;51.458;7.046;2023-08-17T17:34:40;10.33;;;8.93;;
5795;SDS011;2924;51.458;7.046;2023-08-17T17:37:06;9.80;;;8.83;;
5795;SDS011;2924;51.458;7.046;2023-08-17T17:39:32;13.03;;;9.03;;
5795;SDS011;2924;51.458;7.046;2023-08-17T17:41:57;11.33;;;9.57;;
5795;SDS011;2924;51.458;7.046;2023-08-17T17:44:23;13.10;;;9.40;;
5795;SDS011;2924;51.458;7.046;2023-08-17T17:46:49;10.20;;;9.20;;
5795;SDS011;2924;51.458;7.046;2023-08-17T17:49:15;11.73;;;9.70;;
5795;SDS011;2924;51.458;7.046;2023-08-17T17:51:40;11.17;;;9.10;;
5795;SDS011;2924;51.458;7.046;2023-08-17T17:54:06;13.20;;;8.50;;
5795;SDS011;2924;51.458;7.046;2023-08-17T17:56:35;8.87;;;8.00;;
5795;SDS011;2924;51.458;7.046;2023-08-17T17:59:05;12.80;;;10.57;;
5795;SDS011;2924;51.458;7.046;2023-08-17T18:01:31;12.23;;;10.20;;
5795;SDS011;2924;51.458;7.046;2023-08-17T18:03:57;17.57;;;13.10;;
5795;SDS011;2924;51.458;7.046;2023-08-17T18:06:23;13.43;;;10.17;;
5795;SDS011;2924;51.458;7.046;2023-08-17T18:08:48;14.83;;;10.90;;
5795;SDS011;2924;51.458;7.046;2023-08-17T18:11:14;15.17;;;11.83;;
5795;SDS011;2924;51.458;7.046;2023-08-17T18:13:39;17.47;;;12.80;;
5795;SDS011;2924;51.458;7.046;2023-08-17T18:16:05;21.50;;;12.53;;
5795;SDS011;2924;51.458;7.046;2023-08-17T18:18:30;14.80;;;12.87;;
5795;SDS011;2924;51.458;7.046;2023-08-17T18:20:57;12.50;;;11.03;;
5795;SDS011;2924;51.458;7.046;2023-08-17T18:23:24;14.03;;;11.20;;
5795;SDS011;2924;51.458;7.046;2023-08-17T18:25:50;14.70;;;11.57;;
5795;SDS011;2924;51.458;7.046;2023-08-17T18:28:16;16.13;;;13.63;;
5795;SDS011;2924;51.458;7.046;2023-08-17T18:30:41;18.33;;;13.67;;
5795;SDS011;2924;51.458;7.046;2023-08-17T18:33:07;15.90;;;13.93;;
5795;SDS011;2924;51.458;7.046;2023-08-17T18:35:33;18.10;;;15.57;;
5795;SDS011;2924;51.458;7.046;2023-08-17T18:37:58;17.07;;;14.23;;
5795;SDS011;2924;51.458;7.046;2023-08-17T18:40:24;19.20;;;16.33;;
5795;SDS011;2924;51.458;7.046;2023-08-17T18:42:49;21.20;;;16.33;;
5795;SDS011;2924;51.458;7.046;2023-08-17T18:45:18;18.87;;;15.53;;
5795;SDS011;2924;51.458;7.046;2023-08-17T18:47:45;22.60;;;15.03;;
5795;SDS011;2924;51.458;7.046;2023-08-17T18:50:11;28.27;;;16.77;;
5795;SDS011;2924;51.458;7.046;2023-08-17T18:52:38;21.53;;;16.30;;
5795;SDS011;2924;51.458;7.046;2023-08-17T18:55:04;18.60;;;15.60;;
5795;SDS011;2924;51.458;7.046;2023-08-17T18:57:35;31.60;;;18.33;;
5795;SDS011;2924;51.458;7.046;2023-08-17T19:00:02;27.67;;;19.60;;
5795;SDS011;2924;51.458;7.046;2023-08-17T19:02:29;22.80;;;19.43;;
5795;SDS011;2924;51.458;7.046;2023-08-17T19:04:55;31.47;;;21.27;;
5795;SDS011;2924;51.458;7.046;2023-08-17T19:07:20;26.10;;;19.70;;
5795;SDS011;2924;51.458;7.046;2023-08-17T19:09:47;24.63;;;21.17;;
5795;SDS011;2924;51.458;7.046;2023-08-17T19:12:16;25.00;;;20.50;;
5795;SDS011;2924;51.458;7.046;2023-08-17T19:14:45;27.80;;;22.60;;
5795;SDS011;2924;51.458;7.046;2023-08-17T19:17:11;27.73;;;21.17;;
5795;SDS011;2924;51.458;7.046;2023-08-17T19:19:36;27.77;;;20.10;;
5795;SDS011;2924;51.458;7.046;2023-08-17T19:22:02;22.90;;;18.97;;
5795;SDS011;2924;51.458;7.046;2023-08-17T19:24:28;25.43;;;18.60;;
5795;SDS011;2924;51.458;7.046;2023-08-17T19:26:53;32.83;;;20.80;;
5795;SDS011;2924;51.458;7.046;2023-08-17T19:29:19;29.93;;;20.10;;
5795;SDS011;2924;51.458;7.046;2023-08-17T19:31:45;29.80;;;20.17;;
5795;SDS011;2924;51.458;7.046;2023-08-17T19:34:10;30.80;;;22.90;;
5795;SDS011;2924;51.458;7.046;2023-08-17T19:36:36;30.27;;;23.80;;
5795;SDS011;2924;51.458;7.046;2023-08-17T19:39:02;26.27;;;22.50;;
5795;SDS011;2924;51.458;7.046;2023-08-17T19:41:28;42.10;;;24.13;;
5795;SDS011;2924;51.458;7.046;2023-08-17T19:43:54;36.30;;;23.90;;
5795;SDS011;2924;51.458;7.046;2023-08-17T19:46:19;35.87;;;24.00;;
5795;SDS011;2924;51.458;7.046;2023-08-17T19:48:45;37.10;;;25.17;;
5795;SDS011;2924;51.458;7.046;2023-08-17T19:51:10;40.10;;;27.60;;
5795;SDS011;2924;51.458;7.046;2023-08-17T19:53:36;40.17;;;26.13;;
5795;SDS011;2924;51.458;7.046;2023-08-17T19:56:01;34.30;;;26.73;;
5795;SDS011;2924;51.458;7.046;2023-08-17T19:58:28;35.50;;;27.60;;
5795;SDS011;2924;51.458;7.046;2023-08-17T20:00:53;35.63;;;26.47;;
5795;SDS011;2924;51.458;7.046;2023-08-17T20:03:19;41.17;;;28.43;;
5795;SDS011;2924;51.458;7.046;2023-08-17T20:05:45;38.87;;;28.00;;
5795;SDS011;2924;51.458;7.046;2023-08-17T20:08:11;42.53;;;29.23;;
5795;SDS011;2924;51.458;7.046;2023-08-17T20:10:37;37.90;;;27.83;;
5795;SDS011;2924;51.458;7.046;2023-08-17T20:13:02;38.53;;;27.43;;
5795;SDS011;2924;51.458;7.046;2023-08-17T20:15:28;38.50;;;26.67;;
5795;SDS011;2924;51.458;7.046;2023-08-17T20:17:53;35.40;;;27.10;;
5795;SDS011;2924;51.458;7.046;2023-08-17T20:20:19;37.23;;;27.33;;
5795;SDS011;2924;51.458;7.046;2023-08-17T20:22:44;35.80;;;26.53;;
5795;SDS011;2924;51.458;7.046;2023-08-17T20:25:10;43.30;;;29.03;;
5795;SDS011;2924;51.458;7.046;2023-08-17T20:27:37;38.03;;;26.80;;
5795;SDS011;2924;51.458;7.046;2023-08-17T20:30:05;35.50;;;27.63;;
5795;SDS011;2924;51.458;7.046;2023-08-17T20:32:31;35.93;;;26.73;;
5795;SDS011;2924;51.458;7.046;2023-08-17T20:34:57;35.67;;;26.90;;
5795;SDS011;2924;51.458;7.046;2023-08-17T20:37:22;39.27;;;27.70;;
5795;SDS011;2924;51.458;7.046;2023-08-17T20:39:48;43.30;;;28.73;;
5795;SDS011;2924;51.458;7.046;2023-08-17T20:42:14;45.03;;;28.53;;